sensor_id;sensor_type;location;lat;lon;timestamp;P1;P2;P0
61592;PMS5003;47485;51.378;-1.342;2022-07-01T00:00:10;2;2;
61592;PMS5003;47485;51.378;-1.342;2022-07-01T00:02:37;2;2;
61592;PMS5003;47485;51.378;-1.342;2022-07-01T00:05:05;2;2;
61592;PMS5003;47485;51.378;-1.342;2022-07-01T00:07:32;1;1;
61592;PMS5003;47485;51.378;-1.342;2022-07-01T00:09:59;3;2;
61592;PMS5003;47485;51.378;-1.342;2022-07-01T00:12:25;2;2;
61592;PMS5003;47485;51.378;-1.342;2022-07-01T00:14:52;0;0;
61592;PMS5003;47485;51.378;-1.342;2022-07-01T00:17:19;1;1;
61592;PMS5003;47485;51.378;-1.342;2022-07-01T00:19:46;5;3;
61592;PMS5003;47485;51.378;-1.342;2022-07-01T00:22:13;0;0;
61592;PMS5003;47485;51.378;-1.342;2022-07-01T00:24:40;3;2;
61592;PMS5003;47485;51.378;-1.342;2022-07-01T00:27:07;3;3;
61592;PMS5003;47485;51.378;-1.342;2022-07-01T00:29:33;4;3;
61592;PMS5003;47485;51.378;-1.342;2022-07-01T00:32:00;2;2;
61592;PMS5003;47485;51.378;-1.342;2022-07-01T00:34:27;1;1;
61592;PMS5003;47485;51.378;-1.342;2022-07-01T00:36:54;5;3;
61592;PMS5003;47485;51.378;-1.342;2022-07-01T00:39:20;2;2;
61592;PMS5003;47485;51.378;-1.342;2022-07-01T00:41:47;2;2;
61592;PMS5003;47485;51.378;-1.342;2022-07-01T00:44:15;6;4;
61592;PMS5003;47485;51.378;-1.342;2022-07-01T00:46:42;1;1;
61592;PMS5003;47485;51.378;-1.342;2022-07-01T00:49:10;1;1;
61592;PMS5003;47485;51.378;-1.342;2022-07-01T00:51:37;2;2;
61592;PMS5003;47485;51.378;-1.342;2022-07-01T00:54:04;3;2;
61592;PMS5003;47485;51.378;-1.342;2022-07-01T00:56:32;3;2;
61592;PMS5003;47485;51.378;-1.342;2022-07-01T00:58:59;5;2;
61592;PMS5003;47485;51.378;-1.342;2022-07-01T01:01:25;3;3;
61592;PMS5003;47485;51.378;-1.342;2022-07-01T01:03:52;4;3;
61592;PMS5003;47485;51.378;-1.342;2022-07-01T01:06:20;5;3;
61592;PMS5003;47485;51.378;-1.342;2022-07-01T01:08:47;5;3;
61592;PMS5003;47485;51.378;-1.342;2022-07-01T01:11:13;5;4;
61592;PMS5003;47485;51.378;-1.342;2022-07-01T01:13:42;2;2;
61592;PMS5003;47485;51.378;-1.342;2022-07-01T01:16:14;3;3;
61592;PMS5003;47485;51.378;-1.342;2022-07-01T01:18:42;2;2;
61592;PMS5003;47485;51.378;-1.342;2022-07-01T01:21:09;5;3;
61592;PMS5003;47485;51.378;-1.342;2022-07-01T01:23:36;4;4;
61592;PMS5003;47485;51.378;-1.342;2022-07-01T01:26:02;3;3;
61592;PMS5003;47485;51.378;-1.342;2022-07-01T01:28:29;5;4;
61592;PMS5003;47485;51.378;-1.342;2022-07-01T01:30:56;4;3;
61592;PMS5003;47485;51.378;-1.342;2022-07-01T01:33:23;3;3;
61592;PMS5003;47485;51.378;-1.342;2022-07-01T01:35:50;1;1;
61592;PMS5003;47485;51.378;-1.342;2022-07-01T01:38:16;4;3;
61592;PMS5003;47485;51.378;-1.342;2022-07-01T01:40:43;4;0;
61592;PMS5003;47485;51.378;-1.342;2022-07-01T01:43:10;3;3;
61592;PMS5003;47485;51.378;-1.342;2022-07-01T01:45:36;4;4;
61592;PMS5003;47485;51.378;-1.342;2022-07-01T01:48:03;2;2;
61592;PMS5003;47485;51.378;-1.342;2022-07-01T01:50:30;3;3;
61592;PMS5003;47485;51.378;-1.342;2022-07-01T01:52:57;4;3;
61592;PMS5003;47485;51.378;-1.342;2022-07-01T01:55:24;1;1;
61592;PMS5003;47485;51.378;-1.342;2022-07-01T01:57:51;3;3;
61592;PMS5003;47485;51.378;-1.342;2022-07-01T02:00:19;3;3;
61592;PMS5003;47485;51.378;-1.342;2022-07-01T02:02:46;3;3;
61592;PMS5003;47485;51.378;-1.342;2022-07-01T02:05:13;3;3;
61592;PMS5003;47485;51.378;-1.342;2022-07-01T02:07:41;4;3;
61592;PMS5003;47485;51.378;-1.342;2022-07-01T02:10:08;3;3;
61592;PMS5003;47485;51.378;-1.342;2022-07-01T02:12:35;4;3;
61592;PMS5003;47485;51.378;-1.342;2022-07-01T02:15:02;3;2;
61592;PMS5003;47485;51.378;-1.342;2022-07-01T02:17:30;6;5;
61592;PMS5003;47485;51.378;-1.342;2022-07-01T02:19:56;4;4;
61592;PMS5003;47485;51.378;-1.342;2022-07-01T02:22:23;4;4;
61592;PMS5003;47485;51.378;-1.342;2022-07-01T02:24:49;3;3;
61592;PMS5003;47485;51.378;-1.342;2022-07-01T02:27:16;3;3;
61592;PMS5003;47485;51.378;-1.342;2022-07-01T02:29:44;3;3;
61592;PMS5003;47485;51.378;-1.342;2022-07-01T02:32:11;4;3;
61592;PMS5003;47485;51.378;-1.342;2022-07-01T02:34:37;4;4;
61592;PMS5003;47485;51.378;-1.342;2022-07-01T02:37:04;3;3;
61592;PMS5003;47485;51.378;-1.342;2022-07-01T02:39:31;4;3;
61592;PMS5003;47485;51.378;-1.342;2022-07-01T02:41:58;3;3;
61592;PMS5003;47485;51.378;-1.342;2022-07-01T02:44:25;2;2;
61592;PMS5003;47485;51.378;-1.342;2022-07-01T02:46:52;4;3;
61592;PMS5003;47485;51.378;-1.342;2022-07-01T02:49:19;3;3;
61592;PMS5003;47485;51.378;-1.342;2022-07-01T02:51:46;3;2;
61592;PMS5003;47485;51.378;-1.342;2022-07-01T02:54:13;5;4;
61592;PMS5003;47485;51.378;-1.342;2022-07-01T02:56:40;3;3;
61592;PMS5003;47485;51.378;-1.342;2022-07-01T02:59:07;5;3;
61592;PMS5003;47485;51.378;-1.342;2022-07-01T03:01:34;3;3;
61592;PMS5003;47485;51.378;-1.342;2022-07-01T03:04:00;4;4;
61592;PMS5003;47485;51.378;-1.342;2022-07-01T03:06:27;2;2;
61592;PMS5003;47485;51.378;-1.342;2022-07-01T03:08:54;5;2;
61592;PMS5003;47485;51.378;-1.342;2022-07-01T03:11:21;4;4;
61592;PMS5003;47485;51.378;-1.342;2022-07-01T03:13:47;3;3;
61592;PMS5003;47485;51.378;-1.342;2022-07-01T03:16:14;5;3;
61592;PMS5003;47485;51.378;-1.342;2022-07-01T03:18:41;4;4;
61592;PMS5003;47485;51.378;-1.342;2022-07-01T03:21:08;3;3;
61592;PMS5003;47485;51.378;-1.342;2022-07-01T03:23:34;5;3;
61592;PMS5003;47485;51.378;-1.342;2022-07-01T03:26:01;2;2;
61592;PMS5003;47485;51.378;-1.342;2022-07-01T03:28:28;2;2;
61592;PMS5003;47485;51.378;-1.342;2022-07-01T03:30:55;6;4;
61592;PMS5003;47485;51.378;-1.342;2022-07-01T03:33:22;4;4;
61592;PMS5003;47485;51.378;-1.342;2022-07-01T03:35:48;4;4;
61592;PMS5003;47485;51.378;-1.342;2022-07-01T03:38:15;3;3;
61592;PMS5003;47485;51.378;-1.342;2022-07-01T03:40:42;8;4;
61592;PMS5003;47485;51.378;-1.342;2022-07-01T03:43:08;3;3;
61592;PMS5003;47485;51.378;-1.342;2022-07-01T03:45:35;2;2;
61592;PMS5003;47485;51.378;-1.342;2022-07-01T03:48:02;6;4;
61592;PMS5003;47485;51.378;-1.342;2022-07-01T03:50:29;4;3;
61592;PMS5003;47485;51.378;-1.342;2022-07-01T03:52:56;4;1;
61592;PMS5003;47485;51.378;-1.342;2022-07-01T03:55:22;2;2;
61592;PMS5003;47485;51.378;-1.342;2022-07-01T03:57:49;4;3;
61592;PMS5003;47485;51.378;-1.342;2022-07-01T04:00:16;4;3;
61592;PMS5003;47485;51.378;-1.342;2022-07-01T04:02:43;4;2;
61592;PMS5003;47485;51.378;-1.342;2022-07-01T04:05:10;4;3;
61592;PMS5003;47485;51.378;-1.342;2022-07-01T04:07:37;3;3;
61592;PMS5003;47485;51.378;-1.342;2022-07-01T04:10:04;2;2;
61592;PMS5003;47485;51.378;-1.342;2022-07-01T04:12:31;4;2;
61592;PMS5003;47485;51.378;-1.342;2022-07-01T04:14:58;4;3;
61592;PMS5003;47485;51.378;-1.342;2022-07-01T04:17:25;3;3;
61592;PMS5003;47485;51.378;-1.342;2022-07-01T04:19:53;5;4;
61592;PMS5003;47485;51.378;-1.342;2022-07-01T04:22:20;2;2;
61592;PMS5003;47485;51.378;-1.342;2022-07-01T04:24:47;2;2;
61592;PMS5003;47485;51.378;-1.342;2022-07-01T04:27:14;1;1;
61592;PMS5003;47485;51.378;-1.342;2022-07-01T04:29:40;5;1;
61592;PMS5003;47485;51.378;-1.342;2022-07-01T04:32:07;3;2;
61592;PMS5003;47485;51.378;-1.342;2022-07-01T04:34:34;3;3;
61592;PMS5003;47485;51.378;-1.342;2022-07-01T04:37:01;2;2;
61592;PMS5003;47485;51.378;-1.342;2022-07-01T04:39:28;3;3;
61592;PMS5003;47485;51.378;-1.342;2022-07-01T04:41:54;4;3;
61592;PMS5003;47485;51.378;-1.342;2022-07-01T04:44:21;1;1;
61592;PMS5003;47485;51.378;-1.342;2022-07-01T04:46:48;3;3;
61592;PMS5003;47485;51.378;-1.342;2022-07-01T04:49:15;4;3;
61592;PMS5003;47485;51.378;-1.342;2022-07-01T04:51:41;4;3;
61592;PMS5003;47485;51.378;-1.342;2022-07-01T04:54:08;3;3;
61592;PMS5003;47485;51.378;-1.342;2022-07-01T04:56:35;2;2;
61592;PMS5003;47485;51.378;-1.342;2022-07-01T04:59:04;2;2;
61592;PMS5003;47485;51.378;-1.342;2022-07-01T05:01:31;3;2;
61592;PMS5003;47485;51.378;-1.342;2022-07-01T05:03:58;3;3;
61592;PMS5003;47485;51.378;-1.342;2022-07-01T05:06:25;2;1;
61592;PMS5003;47485;51.378;-1.342;2022-07-01T05:08:52;2;1;
61592;PMS5003;47485;51.378;-1.342;2022-07-01T05:11:19;2;2;
61592;PMS5003;47485;51.378;-1.342;2022-07-01T05:13:46;2;2;
61592;PMS5003;47485;51.378;-1.342;2022-07-01T05:16:13;3;3;
61592;PMS5003;47485;51.378;-1.342;2022-07-01T05:18:40;6;3;
61592;PMS5003;47485;51.378;-1.342;2022-07-01T05:21:07;4;4;
61592;PMS5003;47485;51.378;-1.342;2022-07-01T05:23:33;2;2;
61592;PMS5003;47485;51.378;-1.342;2022-07-01T05:26:00;1;1;
61592;PMS5003;47485;51.378;-1.342;2022-07-01T05:28:27;5;3;
61592;PMS5003;47485;51.378;-1.342;2022-07-01T05:30:54;3;2;
61592;PMS5003;47485;51.378;-1.342;2022-07-01T05:33:21;2;2;
61592;PMS5003;47485;51.378;-1.342;2022-07-01T05:35:48;3;2;
61592;PMS5003;47485;51.378;-1.342;2022-07-01T05:38:15;2;2;
61592;PMS5003;47485;51.378;-1.342;2022-07-01T05:40:42;3;3;
61592;PMS5003;47485;51.378;-1.342;2022-07-01T05:43:08;3;3;
61592;PMS5003;47485;51.378;-1.342;2022-07-01T05:45:35;3;2;
61592;PMS5003;47485;51.378;-1.342;2022-07-01T05:48:02;4;3;
61592;PMS5003;47485;51.378;-1.342;2022-07-01T05:50:29;5;5;
61592;PMS5003;47485;51.378;-1.342;2022-07-01T05:52:55;4;3;
61592;PMS5003;47485;51.378;-1.342;2022-07-01T05:55:22;3;3;
61592;PMS5003;47485;51.378;-1.342;2022-07-01T05:57:50;4;4;
61592;PMS5003;47485;51.378;-1.342;2022-07-01T06:00:18;6;4;
61592;PMS5003;47485;51.378;-1.342;2022-07-01T06:02:45;5;5;
61592;PMS5003;47485;51.378;-1.342;2022-07-01T06:05:12;7;6;
61592;PMS5003;47485;51.378;-1.342;2022-07-01T06:07:39;6;6;
61592;PMS5003;47485;51.378;-1.342;2022-07-01T06:10:06;7;7;
61592;PMS5003;47485;51.378;-1.342;2022-07-01T06:12:33;5;5;
61592;PMS5003;47485;51.378;-1.342;2022-07-01T06:15:00;5;5;
61592;PMS5003;47485;51.378;-1.342;2022-07-01T06:17:27;7;6;
61592;PMS5003;47485;51.378;-1.342;2022-07-01T06:19:55;8;7;
61592;PMS5003;47485;51.378;-1.342;2022-07-01T06:22:23;8;7;
61592;PMS5003;47485;51.378;-1.342;2022-07-01T06:24:50;9;9;
61592;PMS5003;47485;51.378;-1.342;2022-07-01T06:27:18;6;5;
61592;PMS5003;47485;51.378;-1.342;2022-07-01T06:29:45;7;7;
61592;PMS5003;47485;51.378;-1.342;2022-07-01T06:32:12;7;6;
61592;PMS5003;47485;51.378;-1.342;2022-07-01T06:34:38;8;8;
61592;PMS5003;47485;51.378;-1.342;2022-07-01T06:37:05;6;6;
61592;PMS5003;47485;51.378;-1.342;2022-07-01T06:39:33;6;6;
61592;PMS5003;47485;51.378;-1.342;2022-07-01T06:42:00;9;8;
61592;PMS5003;47485;51.378;-1.342;2022-07-01T06:44:26;8;7;
61592;PMS5003;47485;51.378;-1.342;2022-07-01T06:46:53;6;6;
61592;PMS5003;47485;51.378;-1.342;2022-07-01T06:49:20;7;7;
61592;PMS5003;47485;51.378;-1.342;2022-07-01T06:51:47;6;5;
61592;PMS5003;47485;51.378;-1.342;2022-07-01T06:54:14;5;5;
61592;PMS5003;47485;51.378;-1.342;2022-07-01T06:56:41;7;6;
61592;PMS5003;47485;51.378;-1.342;2022-07-01T06:59:08;7;6;
61592;PMS5003;47485;51.378;-1.342;2022-07-01T07:01:34;7;6;
61592;PMS5003;47485;51.378;-1.342;2022-07-01T07:04:02;9;8;
61592;PMS5003;47485;51.378;-1.342;2022-07-01T07:06:30;7;6;
61592;PMS5003;47485;51.378;-1.342;2022-07-01T07:08:57;7;4;
61592;PMS5003;47485;51.378;-1.342;2022-07-01T07:11:23;10;6;
61592;PMS5003;47485;51.378;-1.342;2022-07-01T07:13:50;4;4;
61592;PMS5003;47485;51.378;-1.342;2022-07-01T07:16:17;6;5;
61592;PMS5003;47485;51.378;-1.342;2022-07-01T07:18:45;6;6;
61592;PMS5003;47485;51.378;-1.342;2022-07-01T07:21:11;6;6;
61592;PMS5003;47485;51.378;-1.342;2022-07-01T07:23:38;9;5;
61592;PMS5003;47485;51.378;-1.342;2022-07-01T07:26:05;5;4;
61592;PMS5003;47485;51.378;-1.342;2022-07-01T07:28:32;7;6;
61592;PMS5003;47485;51.378;-1.342;2022-07-01T07:30:58;8;5;
61592;PMS5003;47485;51.378;-1.342;2022-07-01T07:33:25;6;6;
61592;PMS5003;47485;51.378;-1.342;2022-07-01T07:35:52;10;6;
61592;PMS5003;47485;51.378;-1.342;2022-07-01T07:38:19;7;6;
61592;PMS5003;47485;51.378;-1.342;2022-07-01T07:40:47;4;4;
61592;PMS5003;47485;51.378;-1.342;2022-07-01T07:43:14;5;5;
61592;PMS5003;47485;51.378;-1.342;2022-07-01T07:45:40;7;5;
61592;PMS5003;47485;51.378;-1.342;2022-07-01T07:48:07;4;4;
61592;PMS5003;47485;51.378;-1.342;2022-07-01T07:50:34;7;5;
61592;PMS5003;47485;51.378;-1.342;2022-07-01T07:53:01;9;7;
61592;PMS5003;47485;51.378;-1.342;2022-07-01T07:55:28;9;6;
61592;PMS5003;47485;51.378;-1.342;2022-07-01T07:57:54;8;6;
61592;PMS5003;47485;51.378;-1.342;2022-07-01T08:00:21;6;5;
61592;PMS5003;47485;51.378;-1.342;2022-07-01T08:02:52;3;3;
61592;PMS5003;47485;51.378;-1.342;2022-07-01T08:05:19;6;5;
61592;PMS5003;47485;51.378;-1.342;2022-07-01T08:07:47;6;4;
61592;PMS5003;47485;51.378;-1.342;2022-07-01T08:10:13;7;5;
61592;PMS5003;47485;51.378;-1.342;2022-07-01T08:12:41;6;5;
61592;PMS5003;47485;51.378;-1.342;2022-07-01T08:15:07;5;4;
61592;PMS5003;47485;51.378;-1.342;2022-07-01T08:17:35;3;3;
61592;PMS5003;47485;51.378;-1.342;2022-07-01T08:20:02;5;4;
61592;PMS5003;47485;51.378;-1.342;2022-07-01T08:22:29;3;3;
61592;PMS5003;47485;51.378;-1.342;2022-07-01T08:24:56;4;3;
61592;PMS5003;47485;51.378;-1.342;2022-07-01T08:27:23;7;5;
61592;PMS5003;47485;51.378;-1.342;2022-07-01T08:29:49;4;4;
61592;PMS5003;47485;51.378;-1.342;2022-07-01T08:32:16;3;3;
61592;PMS5003;47485;51.378;-1.342;2022-07-01T08:34:43;6;4;
61592;PMS5003;47485;51.378;-1.342;2022-07-01T08:37:09;3;3;
61592;PMS5003;47485;51.378;-1.342;2022-07-01T08:39:36;2;2;
61592;PMS5003;47485;51.378;-1.342;2022-07-01T08:42:03;3;3;
61592;PMS5003;47485;51.378;-1.342;2022-07-01T08:44:33;3;3;
61592;PMS5003;47485;51.378;-1.342;2022-07-01T08:47:00;5;4;
61592;PMS5003;47485;51.378;-1.342;2022-07-01T08:49:27;4;4;
61592;PMS5003;47485;51.378;-1.342;2022-07-01T08:51:54;2;2;
61592;PMS5003;47485;51.378;-1.342;2022-07-01T08:54:21;7;4;
61592;PMS5003;47485;51.378;-1.342;2022-07-01T08:56:48;2;2;
61592;PMS5003;47485;51.378;-1.342;2022-07-01T08:59:21;4;2;
61592;PMS5003;47485;51.378;-1.342;2022-07-01T09:01:54;6;5;
61592;PMS5003;47485;51.378;-1.342;2022-07-01T09:04:21;3;3;
61592;PMS5003;47485;51.378;-1.342;2022-07-01T09:06:48;2;2;
61592;PMS5003;47485;51.378;-1.342;2022-07-01T09:09:16;2;1;
61592;PMS5003;47485;51.378;-1.342;2022-07-01T09:11:46;2;2;
61592;PMS5003;47485;51.378;-1.342;2022-07-01T09:14:15;4;3;
61592;PMS5003;47485;51.378;-1.342;2022-07-01T09:16:43;2;2;
61592;PMS5003;47485;51.378;-1.342;2022-07-01T09:19:11;2;2;
61592;PMS5003;47485;51.378;-1.342;2022-07-01T09:21:40;3;2;
61592;PMS5003;47485;51.378;-1.342;2022-07-01T09:24:22;2;2;
61592;PMS5003;47485;51.378;-1.342;2022-07-01T09:26:52;2;2;
61592;PMS5003;47485;51.378;-1.342;2022-07-01T09:29:20;2;2;
61592;PMS5003;47485;51.378;-1.342;2022-07-01T09:31:52;1;1;
61592;PMS5003;47485;51.378;-1.342;2022-07-01T09:34:19;3;3;
61592;PMS5003;47485;51.378;-1.342;2022-07-01T09:36:51;1;1;
61592;PMS5003;47485;51.378;-1.342;2022-07-01T09:39:20;2;2;
61592;PMS5003;47485;51.378;-1.342;2022-07-01T09:41:47;1;1;
61592;PMS5003;47485;51.378;-1.342;2022-07-01T09:44:13;2;2;
61592;PMS5003;47485;51.378;-1.342;2022-07-01T09:46:53;2;2;
61592;PMS5003;47485;51.378;-1.342;2022-07-01T09:49:21;2;2;
61592;PMS5003;47485;51.378;-1.342;2022-07-01T09:51:49;2;1;
61592;PMS5003;47485;51.378;-1.342;2022-07-01T09:54:16;3;2;
61592;PMS5003;47485;51.378;-1.342;2022-07-01T09:56:44;4;3;
61592;PMS5003;47485;51.378;-1.342;2022-07-01T09:59:11;1;1;
61592;PMS5003;47485;51.378;-1.342;2022-07-01T10:01:37;2;2;
61592;PMS5003;47485;51.378;-1.342;2022-07-01T10:04:06;5;4;
61592;PMS5003;47485;51.378;-1.342;2022-07-01T10:06:46;5;3;
61592;PMS5003;47485;51.378;-1.342;2022-07-01T10:09:29;4;3;
61592;PMS5003;47485;51.378;-1.342;2022-07-01T10:12:13;3;2;
61592;PMS5003;47485;51.378;-1.342;2022-07-01T10:14:55;0;0;
61592;PMS5003;47485;51.378;-1.342;2022-07-01T10:17:28;3;2;
61592;PMS5003;47485;51.378;-1.342;2022-07-01T10:19:57;3;1;
61592;PMS5003;47485;51.378;-1.342;2022-07-01T10:22:35;3;3;
61592;PMS5003;47485;51.378;-1.342;2022-07-01T10:25:29;3;2;
61592;PMS5003;47485;51.378;-1.342;2022-07-01T10:28:13;3;3;
61592;PMS5003;47485;51.378;-1.342;2022-07-01T10:30:51;2;2;
61592;PMS5003;47485;51.378;-1.342;2022-07-01T10:33:31;5;4;
61592;PMS5003;47485;51.378;-1.342;2022-07-01T10:36:04;2;2;
61592;PMS5003;47485;51.378;-1.342;2022-07-01T10:38:32;5;3;
61592;PMS5003;47485;51.378;-1.342;2022-07-01T10:40:59;3;3;
61592;PMS5003;47485;51.378;-1.342;2022-07-01T10:43:31;1;1;
61592;PMS5003;47485;51.378;-1.342;2022-07-01T10:46:00;3;3;
61592;PMS5003;47485;51.378;-1.342;2022-07-01T10:48:30;0;0;
61592;PMS5003;47485;51.378;-1.342;2022-07-01T10:50:57;3;3;
61592;PMS5003;47485;51.378;-1.342;2022-07-01T10:53:24;3;3;
61592;PMS5003;47485;51.378;-1.342;2022-07-01T10:56:10;5;2;
61592;PMS5003;47485;51.378;-1.342;2022-07-01T10:58:42;4;3;
61592;PMS5003;47485;51.378;-1.342;2022-07-01T11:01:09;6;2;
61592;PMS5003;47485;51.378;-1.342;2022-07-01T11:03:36;3;3;
61592;PMS5003;47485;51.378;-1.342;2022-07-01T11:06:03;3;3;
61592;PMS5003;47485;51.378;-1.342;2022-07-01T11:08:31;3;3;
61592;PMS5003;47485;51.378;-1.342;2022-07-01T11:10:59;1;1;
61592;PMS5003;47485;51.378;-1.342;2022-07-01T11:13:28;1;1;
61592;PMS5003;47485;51.378;-1.342;2022-07-01T11:15:55;0;0;
61592;PMS5003;47485;51.378;-1.342;2022-07-01T11:18:23;1;1;
61592;PMS5003;47485;51.378;-1.342;2022-07-01T11:20:50;2;1;
61592;PMS5003;47485;51.378;-1.342;2022-07-01T11:23:17;8;5;
61592;PMS5003;47485;51.378;-1.342;2022-07-01T11:25:47;12;8;
61592;PMS5003;47485;51.378;-1.342;2022-07-01T11:28:14;6;4;
61592;PMS5003;47485;51.378;-1.342;2022-07-01T11:30:41;3;2;
61592;PMS5003;47485;51.378;-1.342;2022-07-01T11:33:09;2;1;
61592;PMS5003;47485;51.378;-1.342;2022-07-01T11:35:37;1;1;
61592;PMS5003;47485;51.378;-1.342;2022-07-01T11:38:06;3;3;
61592;PMS5003;47485;51.378;-1.342;2022-07-01T11:40:34;1;1;
61592;PMS5003;47485;51.378;-1.342;2022-07-01T11:43:02;1;1;
61592;PMS5003;47485;51.378;-1.342;2022-07-01T11:45:44;3;1;
61592;PMS5003;47485;51.378;-1.342;2022-07-01T11:48:11;2;2;
61592;PMS5003;47485;51.378;-1.342;2022-07-01T11:50:38;2;2;
61592;PMS5003;47485;51.378;-1.342;2022-07-01T11:53:06;3;3;
61592;PMS5003;47485;51.378;-1.342;2022-07-01T11:55:34;2;2;
61592;PMS5003;47485;51.378;-1.342;2022-07-01T11:58:01;6;6;
61592;PMS5003;47485;51.378;-1.342;2022-07-01T12:00:32;1;1;
61592;PMS5003;47485;51.378;-1.342;2022-07-01T12:03:00;2;2;
61592;PMS5003;47485;51.378;-1.342;2022-07-01T12:05:26;1;1;
61592;PMS5003;47485;51.378;-1.342;2022-07-01T12:07:54;1;1;
61592;PMS5003;47485;51.378;-1.342;2022-07-01T12:10:23;0;0;
61592;PMS5003;47485;51.378;-1.342;2022-07-01T12:12:50;2;2;
61592;PMS5003;47485;51.378;-1.342;2022-07-01T12:15:17;2;1;
61592;PMS5003;47485;51.378;-1.342;2022-07-01T12:17:46;1;1;
61592;PMS5003;47485;51.378;-1.342;2022-07-01T12:20:13;0;0;
61592;PMS5003;47485;51.378;-1.342;2022-07-01T12:22:39;1;1;
61592;PMS5003;47485;51.378;-1.342;2022-07-01T12:25:07;1;1;
61592;PMS5003;47485;51.378;-1.342;2022-07-01T12:27:36;0;0;
61592;PMS5003;47485;51.378;-1.342;2022-07-01T12:30:05;1;1;
61592;PMS5003;47485;51.378;-1.342;2022-07-01T12:32:35;3;2;
61592;PMS5003;47485;51.378;-1.342;2022-07-01T12:35:04;1;0;
61592;PMS5003;47485;51.378;-1.342;2022-07-01T12:37:33;0;0;
61592;PMS5003;47485;51.378;-1.342;2022-07-01T12:40:03;2;1;
61592;PMS5003;47485;51.378;-1.342;2022-07-01T12:42:33;3;1;
61592;PMS5003;47485;51.378;-1.342;2022-07-01T12:45:02;0;0;
61592;PMS5003;47485;51.378;-1.342;2022-07-01T12:47:32;0;0;
61592;PMS5003;47485;51.378;-1.342;2022-07-01T12:50:08;1;1;
61592;PMS5003;47485;51.378;-1.342;2022-07-01T12:52:36;1;1;
61592;PMS5003;47485;51.378;-1.342;2022-07-01T12:55:12;5;5;
61592;PMS5003;47485;51.378;-1.342;2022-07-01T12:57:40;3;3;
61592;PMS5003;47485;51.378;-1.342;2022-07-01T13:00:08;1;1;
61592;PMS5003;47485;51.378;-1.342;2022-07-01T13:02:36;2;1;
61592;PMS5003;47485;51.378;-1.342;2022-07-01T13:05:02;0;0;
61592;PMS5003;47485;51.378;-1.342;2022-07-01T13:07:31;2;1;
61592;PMS5003;47485;51.378;-1.342;2022-07-01T13:09:58;2;1;
61592;PMS5003;47485;51.378;-1.342;2022-07-01T13:12:24;2;1;
61592;PMS5003;47485;51.378;-1.342;2022-07-01T13:14:51;1;1;
61592;PMS5003;47485;51.378;-1.342;2022-07-01T13:17:18;0;0;
61592;PMS5003;47485;51.378;-1.342;2022-07-01T13:19:45;1;1;
61592;PMS5003;47485;51.378;-1.342;2022-07-01T13:22:12;2;0;
61592;PMS5003;47485;51.378;-1.342;2022-07-01T13:24:39;2;1;
61592;PMS5003;47485;51.378;-1.342;2022-07-01T13:27:06;1;1;
61592;PMS5003;47485;51.378;-1.342;2022-07-01T13:29:33;1;1;
61592;PMS5003;47485;51.378;-1.342;2022-07-01T13:32:00;1;1;
61592;PMS5003;47485;51.378;-1.342;2022-07-01T13:34:27;2;1;
61592;PMS5003;47485;51.378;-1.342;2022-07-01T13:36:53;1;1;
61592;PMS5003;47485;51.378;-1.342;2022-07-01T13:39:21;2;2;
61592;PMS5003;47485;51.378;-1.342;2022-07-01T13:41:48;3;2;
61592;PMS5003;47485;51.378;-1.342;2022-07-01T13:44:15;3;2;
61592;PMS5003;47485;51.378;-1.342;2022-07-01T13:46:42;2;0;
61592;PMS5003;47485;51.378;-1.342;2022-07-01T13:49:09;4;2;
61592;PMS5003;47485;51.378;-1.342;2022-07-01T13:51:36;2;2;
61592;PMS5003;47485;51.378;-1.342;2022-07-01T13:54:02;1;1;
61592;PMS5003;47485;51.378;-1.342;2022-07-01T13:56:29;1;1;
61592;PMS5003;47485;51.378;-1.342;2022-07-01T13:58:56;1;0;
61592;PMS5003;47485;51.378;-1.342;2022-07-01T14:01:23;0;0;
61592;PMS5003;47485;51.378;-1.342;2022-07-01T14:03:51;0;0;
61592;PMS5003;47485;51.378;-1.342;2022-07-01T14:06:19;1;1;
61592;PMS5003;47485;51.378;-1.342;2022-07-01T14:08:47;0;0;
61592;PMS5003;47485;51.378;-1.342;2022-07-01T14:11:14;3;1;
61592;PMS5003;47485;51.378;-1.342;2022-07-01T14:13:41;2;2;
61592;PMS5003;47485;51.378;-1.342;2022-07-01T14:16:10;1;1;
61592;PMS5003;47485;51.378;-1.342;2022-07-01T14:18:37;0;0;
61592;PMS5003;47485;51.378;-1.342;2022-07-01T14:21:05;2;1;
61592;PMS5003;47485;51.378;-1.342;2022-07-01T14:23:33;4;1;
61592;PMS5003;47485;51.378;-1.342;2022-07-01T14:26:00;3;2;
61592;PMS5003;47485;51.378;-1.342;2022-07-01T14:28:29;2;0;
61592;PMS5003;47485;51.378;-1.342;2022-07-01T14:30:57;0;0;
61592;PMS5003;47485;51.378;-1.342;2022-07-01T14:33:24;1;1;
61592;PMS5003;47485;51.378;-1.342;2022-07-01T14:35:52;1;1;
61592;PMS5003;47485;51.378;-1.342;2022-07-01T14:38:19;0;0;
61592;PMS5003;47485;51.378;-1.342;2022-07-01T14:40:47;1;1;
61592;PMS5003;47485;51.378;-1.342;2022-07-01T14:43:14;3;2;
61592;PMS5003;47485;51.378;-1.342;2022-07-01T14:45:41;2;2;
61592;PMS5003;47485;51.378;-1.342;2022-07-01T14:48:08;3;2;
61592;PMS5003;47485;51.378;-1.342;2022-07-01T14:50:36;2;0;
61592;PMS5003;47485;51.378;-1.342;2022-07-01T14:53:03;0;0;
61592;PMS5003;47485;51.378;-1.342;2022-07-01T14:55:30;0;0;
61592;PMS5003;47485;51.378;-1.342;2022-07-01T14:57:57;0;0;
61592;PMS5003;47485;51.378;-1.342;2022-07-01T15:00:24;1;0;
61592;PMS5003;47485;51.378;-1.342;2022-07-01T15:02:52;0;0;
61592;PMS5003;47485;51.378;-1.342;2022-07-01T15:05:19;1;1;
61592;PMS5003;47485;51.378;-1.342;2022-07-01T15:07:47;4;2;
61592;PMS5003;47485;51.378;-1.342;2022-07-01T15:10:14;0;0;
61592;PMS5003;47485;51.378;-1.342;2022-07-01T15:12:41;2;1;
61592;PMS5003;47485;51.378;-1.342;2022-07-01T15:15:08;4;3;
61592;PMS5003;47485;51.378;-1.342;2022-07-01T15:17:41;2;1;
61592;PMS5003;47485;51.378;-1.342;2022-07-01T15:20:09;1;1;
61592;PMS5003;47485;51.378;-1.342;2022-07-01T15:22:37;1;1;
61592;PMS5003;47485;51.378;-1.342;2022-07-01T15:25:04;0;0;
61592;PMS5003;47485;51.378;-1.342;2022-07-01T15:27:31;4;2;
61592;PMS5003;47485;51.378;-1.342;2022-07-01T15:29:59;0;0;
61592;PMS5003;47485;51.378;-1.342;2022-07-01T15:32:26;1;1;
61592;PMS5003;47485;51.378;-1.342;2022-07-01T15:34:53;1;1;
61592;PMS5003;47485;51.378;-1.342;2022-07-01T15:37:21;2;1;
61592;PMS5003;47485;51.378;-1.342;2022-07-01T15:39:48;1;1;
61592;PMS5003;47485;51.378;-1.342;2022-07-01T15:42:15;2;2;
61592;PMS5003;47485;51.378;-1.342;2022-07-01T15:44:42;2;1;
61592;PMS5003;47485;51.378;-1.342;2022-07-01T15:47:09;3;3;
61592;PMS5003;47485;51.378;-1.342;2022-07-01T15:49:35;1;1;
61592;PMS5003;47485;51.378;-1.342;2022-07-01T15:52:03;2;1;
61592;PMS5003;47485;51.378;-1.342;2022-07-01T15:54:30;2;1;
61592;PMS5003;47485;51.378;-1.342;2022-07-01T15:56:56;0;0;
61592;PMS5003;47485;51.378;-1.342;2022-07-01T15:59:23;3;2;
61592;PMS5003;47485;51.378;-1.342;2022-07-01T16:01:50;0;0;
61592;PMS5003;47485;51.378;-1.342;2022-07-01T16:04:17;1;1;
61592;PMS5003;47485;51.378;-1.342;2022-07-01T16:06:44;0;0;
61592;PMS5003;47485;51.378;-1.342;2022-07-01T16:09:12;0;0;
61592;PMS5003;47485;51.378;-1.342;2022-07-01T16:11:39;0;0;
61592;PMS5003;47485;51.378;-1.342;2022-07-01T16:14:08;0;0;
61592;PMS5003;47485;51.378;-1.342;2022-07-01T16:16:37;0;0;
61592;PMS5003;47485;51.378;-1.342;2022-07-01T16:19:05;0;0;
61592;PMS5003;47485;51.378;-1.342;2022-07-01T16:21:34;1;0;
61592;PMS5003;47485;51.378;-1.342;2022-07-01T16:24:03;0;0;
61592;PMS5003;47485;51.378;-1.342;2022-07-01T16:26:31;0;0;
61592;PMS5003;47485;51.378;-1.342;2022-07-01T16:28:59;0;0;
61592;PMS5003;47485;51.378;-1.342;2022-07-01T16:31:27;0;0;
61592;PMS5003;47485;51.378;-1.342;2022-07-01T16:33:56;0;0;
61592;PMS5003;47485;51.378;-1.342;2022-07-01T16:36:24;1;0;